EST,Max TemperatureF,Mean TemperatureF,Min TemperatureF,Max Dew PointF,MeanDew PointF,Min DewpointF,Max Humidity, Mean Humidity, Min Humidity, Max Sea Level PressureIn, Mean Sea Level PressureIn, Min Sea Level PressureIn, Max VisibilityMiles, Mean VisibilityMiles, Min VisibilityMiles, Max Wind SpeedMPH, Mean Wind SpeedMPH, Max Gust SpeedMPH,PrecipitationIn, CloudCover, Events, WindDirDegrees
2013-2-1,30,23,16,16,8,4,74,54,34,30.07,29.76,29.55,10,9,2,24,13,32,T,6,Snow,289
2013-2-2,26,19,11,11,4,1,73,55,36,30.22,30.11,30.02,10,10,10,14,6,20,0.00,4,,236
2013-2-3,30,22,13,15,13,10,88,69,50,30.04,29.89,29.72,10,10,9,9,2,13,T,7,,7
2013-2-4,29,23,17,14,4,-2,74,52,29,29.89,29.77,29.70,10,10,10,25,12,38,0.00,2,,285
2013-2-5,28,16,4,11,3,0,88,60,31,30.04,29.96,29.90,10,10,10,12,2,15,0.00,1,,139
2013-2-6,36,27,17,22,14,-7,92,62,32,30.31,30.02,29.91,10,7,2,22,6,29,T,6,Snow,294
2013-2-7,25,18,11,1,-6,-9,50,37,24,30.55,30.47,30.32,10,10,10,20,6,24,0.00,3,,321
2013-2-8,21,18,15,14,10,-1,88,61,33,30.49,30.21,29.80,10,3,0,51,9,32,0.51,8,Fog-Snow,30
2013-2-9,19,16,12,16,9,-2,92,72,51,30.22,29.86,29.72,10,3,0,39,17,148,0.92,5,Fog-Snow,339
2013-2-10,34,16,-2,6,-1,-6,88,55,22,30.41,30.34,30.24,10,10,10,15,5,17,0.00,0,,313
2013-2-11,28,15,2,27,20,1,100,87,73,30.35,29.91,29.62,10,3,0,8,2,12,0.25,7,Fog-Rain-Snow,310
2013-2-12,42,35,27,31,27,24,100,76,51,29.84,29.68,29.60,10,9,4,24,8,33,0.00,6,,280
2013-2-13,39,31,22,26,20,18,81,61,40,29.85,29.80,29.74,10,10,9,14,4,20,0.00,3,,299
2013-2-14,41,30,19,22,19,17,92,65,38,29.98,29.88,29.73,10,10,7,13,1,17,0.00,5,,352
2013-2-15,48,32,15,27,22,15,92,66,39,29.98,29.94,29.88,10,8,5,17,3,23,0.00,2,,227
2013-2-16,38,32,25,29,22,6,92,69,46,29.96,29.91,29.76,10,7,1,16,6,20,0.03,7,Snow,321
2013-2-17,25,19,13,12,7,0,88,64,40,29.72,29.52,29.40,10,5,1,38,22,52,0.03,8,Snow,313
2013-2-18,28,20,12,1,-2,-5,61,44,26,30.12,29.94,29.69,10,10,10,33,16,41,0.00,1,,297
2013-2-19,41,26,10,36,21,-1,100,66,31,30.16,29.84,29.56,10,7,0,10,3,16,0.12,6,Fog-Rain,117
2013-2-20,35,29,23,34,23,12,100,75,49,29.75,29.59,29.50,10,7,0,23,11,31,0.03,7,Fog-Rain,282
2013-2-21,27,23,19,13,10,6,68,59,50,30.22,29.90,29.74,10,10,10,28,13,39,0.00,3,,314
2013-2-22,39,23,7,23,16,5,92,66,40,30.41,30.34,30.27,10,10,10,10,2,12,0.00,1,,127
2013-2-23,35,31,26,32,28,21,96,83,69,30.33,30.12,29.96,10,5,1,10,2,15,0.11,8,Snow,111
2013-2-24,33,31,29,32,30,28,100,93,85,29.95,29.83,29.75,8,2,0,10,5,15,0.97,8,Fog-Snow,11
2013-2-25,37,29,21,32,28,21,100,88,76,30.24,30.08,29.90,10,4,0,8,1,10,0.01,7,Fog-Snow,315
2013-2-26,39,34,28,32,29,27,100,82,64,30.35,30.28,30.20,10,5,0,9,2,22,0.00,7,Fog,105
2013-2-27,37,35,32,36,31,27,96,86,75,30.18,29.88,29.63,10,4,0,21,9,28,0.55,8,Fog-Rain-Snow,59
2013-2-28,43,37,31,35,32,30,100,85,70,29.62,29.58,29.54,10,10,7,10,3,15,0.02,7,Snow,315